Time;durP1;ratioP1;P1;durP2;ratioP2;P2;SDS_P1;SDS_P2;PMS_P1;PMS_P2;Temp;Humidity;BMP_temperature;BMP_pressure;BME280_temperature;BME280_humidity;BME280_pressure;Samples;Min_cycle;Max_cycle;Signal;HPM_P1;HPM_P2
2023/08/04 00:00:06;;;;;;;3.30;1.20;;;;;;;16.16;100.00;100549.44;4976086;28;20819;-79
2023/08/04 00:02:38;;;;;;;3.20;1.07;;;;;;;17.05;100.00;100684.25;4977196;28;20527;-79
2023/08/04 00:05:13;;;;;;;3.03;1.10;;;;;;;16.91;100.00;100650.41;4975504;28;20499;-78
2023/08/04 00:07:39;;;;;;;3.17;1.10;;;;;;;16.92;100.00;100676.44;4971877;28;20428;-79
2023/08/04 00:10:08;;;;;;;2.37;1.17;;;;;;;16.89;100.00;100674.22;4979345;28;20839;-79
2023/08/04 00:12:52;;;;;;;2.67;1.13;;;;;;;17.11;100.00;100694.09;4969755;28;20991;-78
2023/08/04 00:15:24;;;;;;;3.67;1.07;;;;;;;16.92;100.00;100681.84;4976524;28;20449;-79
2023/08/04 00:17:50;;;;;;;3.27;1.10;;;;;;;16.94;100.00;100687.84;4973200;28;20479;-79
2023/08/04 00:20:27;;;;;;;3.00;1.00;;;;;;;16.90;100.00;100716.50;4974959;28;20444;-80
2023/08/04 00:22:59;;;;;;;4.30;1.20;;;;;;;15.91;100.00;100540.84;4971832;28;20455;-79
2023/08/04 00:25:24;;;;;;;4.00;1.40;;;;;;;14.03;100.00;100250.41;5000042;23;20510;-74
2023/08/04 00:27:50;;;;;;;5.10;1.20;;;;;;;15.22;100.00;100481.34;5009100;28;20446;-74
2023/08/04 00:30:15;;;;;;;4.07;1.30;;;;;;;14.72;100.00;100401.66;5007579;28;20233;-74
2023/08/04 00:32:41;;;;;;;3.37;1.33;;;;;;;15.14;100.00;100479.81;5009100;28;20215;-74
2023/08/04 00:35:06;;;;;;;3.03;1.13;;;;;;;15.24;100.00;100498.09;5004814;28;20366;-74
2023/08/04 00:37:34;;;;;;;3.57;1.40;;;;;;;14.58;100.00;100327.41;5009265;28;20212;-74
2023/08/04 00:39:59;;;;;;;4.43;1.30;;;;;;;14.29;100.00;100288.69;5021484;28;20188;-74
2023/08/04 00:42:25;;;;;;;2.83;1.40;;;;;;;15.18;100.00;100490.97;5011324;28;20495;-74
2023/08/04 00:44:50;;;;;;;3.73;1.33;;;;;;;17.03;100.00;100792.06;5010048;28;20650;-74
2023/08/04 00:47:16;;;;;;;2.73;1.30;;;;;;;14.99;100.00;100461.41;5013774;28;20215;-74
2023/08/04 00:49:43;;;;;;;3.03;1.23;;;;;;;14.14;100.00;100345.81;5014443;28;20181;-74
2023/08/04 00:52:08;;;;;;;2.47;1.07;;;;;;;15.08;100.00;100484.28;5018225;28;20733;-74
2023/08/04 00:54:36;;;;;;;3.93;1.20;;;;;;;14.22;100.00;100323.91;5014541;28;20494;-74
2023/08/04 00:57:02;;;;;;;4.43;1.40;;;;;;;15.37;100.00;100577.03;5016097;28;20212;-74
2023/08/04 00:59:27;;;;;;;5.60;1.40;;;;;;;15.01;100.00;100517.88;5013723;28;20439;-74
2023/08/04 01:01:53;;;;;;;2.07;0.90;;;;;;;14.20;100.00;100342.19;5012464;28;20791;-73
2023/08/04 01:04:20;;;;;;;4.43;1.60;;;;;;;13.59;100.00;100239.13;5012959;28;20238;-74
2023/08/04 01:07:05;;;;;;;3.33;1.07;;;;;;;15.22;100.00;100552.41;5015296;28;20215;-74
2023/08/04 01:09:30;;;;;;;4.33;1.47;;;;;;;17.02;100.00;100787.72;5014377;28;20446;-74
2023/08/04 01:12:04;;;;;;;2.80;1.00;;;;;;;15.63;100.00;100601.09;5016312;28;20458;-74
2023/08/04 01:14:31;;;;;;;3.90;1.83;;;;;;;16.55;100.00;100749.94;5015558;28;20195;-74
2023/08/04 01:16:56;;;;;;;2.87;1.13;;;;;;;14.02;100.00;100316.16;5020769;28;20473;-74
2023/08/04 01:19:22;;;;;;;4.77;1.43;;;;;;;15.56;100.00;100602.06;5011383;28;20439;-74
2023/08/04 01:21:48;;;;;;;3.47;1.13;;;;;;;15.53;100.00;100634.13;5011273;28;20583;-74
2023/08/04 01:24:13;;;;;;;2.77;1.10;;;;;;;15.50;100.00;100619.19;5012412;28;20448;-73
2023/08/04 01:26:44;;;;;;;4.57;1.20;;;;;;;15.20;100.00;100538.28;5010948;28;20695;-74
2023/08/04 01:29:10;;;;;;;4.23;1.20;;;;;;;16.35;100.00;100734.13;5013636;28;20177;-74
2023/08/04 01:31:38;;;;;;;5.07;0.97;;;;;;;15.78;100.00;100650.13;5013197;28;20906;-74
2023/08/04 01:34:04;;;;;;;4.13;1.20;;;;;;;15.78;100.00;100653.66;5017111;28;20869;-74
2023/08/04 01:36:29;;;;;;;2.73;1.10;;;;;;;15.21;100.00;100587.75;5010013;28;20541;-74
2023/08/04 01:38:56;;;;;;;3.53;1.20;;;;;;;14.71;100.00;100480.19;5010090;28;20443;-74
2023/08/04 01:41:21;;;;;;;2.70;1.20;;;;;;;14.27;100.00;100410.34;5009687;28;20263;-74
2023/08/04 01:43:47;;;;;;;3.20;1.00;;;;;;;15.29;100.00;100644.13;5010247;28;20449;-74
2023/08/04 01:46:12;;;;;;;4.23;1.30;;;;;;;13.91;100.00;100405.94;5010490;28;20599;-74
2023/08/04 01:48:38;;;;;;;3.17;1.20;;;;;;;14.01;100.00;100436.69;5010635;28;20633;-74
2023/08/04 01:51:03;;;;;;;2.90;1.10;;;;;;;16.80;100.00;100811.94;5008988;28;20199;-74
2023/08/04 01:53:28;;;;;;;2.83;1.00;;;;;;;13.99;100.00;100384.84;5008411;28;20185;-74
2023/08/04 01:55:54;;;;;;;4.00;1.13;;;;;;;15.04;100.00;100574.13;5010049;28;20206;-74
2023/08/04 01:58:20;;;;;;;3.03;1.23;;;;;;;14.12;100.00;100435.06;5010354;28;20249;-74
2023/08/04 02:00:46;;;;;;;3.40;1.00;;;;;;;14.39;100.00;100488.59;5006656;28;21150;-74
2023/08/04 02:03:11;;;;;;;2.70;1.10;;;;;;;14.10;100.00;100447.97;5009863;28;20185;-74
2023/08/04 02:05:36;;;;;;;2.80;1.10;;;;;;;13.65;100.00;100308.25;5012316;28;20820;-74
2023/08/04 02:08:02;;;;;;;7.43;1.47;;;;;;;14.88;100.00;100527.03;5008402;28;20185;-74
2023/08/04 02:10:28;;;;;;;3.93;1.20;;;;;;;14.76;100.00;100543.25;5012203;28;20196;-74
2023/08/04 02:12:53;;;;;;;2.63;1.00;;;;;;;14.68;100.00;100520.09;5010750;28;20547;-74
2023/08/04 02:15:19;;;;;;;5.10;1.20;;;;;;;15.06;100.00;100569.31;5011461;28;20208;-74
2023/08/04 02:17:44;;;;;;;5.00;1.40;;;;;;;14.47;100.00;100513.34;5017217;28;20209;-74
2023/08/04 02:20:10;;;;;;;1.97;1.10;;;;;;;14.45;100.00;100515.47;5010185;28;20248;-74
2023/08/04 02:22:35;;;;;;;2.73;0.90;;;;;;;15.18;100.00;100658.47;5011914;28;20234;-74
2023/08/04 02:25:01;;;;;;;2.80;1.40;;;;;;;14.43;100.00;100533.75;5011569;28;20217;-74
2023/08/04 02:27:26;;;;;;;5.33;1.63;;;;;;;14.43;100.00;100532.94;5012044;28;20265;-74
2023/08/04 02:29:52;;;;;;;3.50;1.67;;;;;;;15.15;100.00;100644.34;5009702;28;20200;-74
2023/08/04 02:32:17;;;;;;;2.23;1.00;;;;;;;14.81;100.00;100605.47;5008909;28;20189;-74
2023/08/04 02:34:43;;;;;;;3.87;1.40;;;;;;;13.70;100.00;100386.56;5012138;28;20212;-74
2023/08/04 02:37:08;;;;;;;3.90;1.27;;;;;;;14.32;100.00;100534.56;5009640;28;20247;-74
2023/08/04 02:39:36;;;;;;;5.50;1.00;;;;;;;14.70;100.00;100608.97;5009582;28;20196;-74
2023/08/04 02:42:02;;;;;;;5.10;1.90;;;;;;;16.56;100.00;100880.75;5011101;28;20260;-74
2023/08/04 02:44:27;;;;;;;5.30;1.03;;;;;;;14.64;100.00;100612.59;5009938;28;20862;-74
2023/08/04 02:46:53;;;;;;;2.20;1.00;;;;;;;14.95;100.00;100657.38;5009031;28;20207;-74
2023/08/04 02:49:18;;;;;;;3.03;1.30;;;;;;;14.73;100.00;100621.19;5013353;28;21184;-74
2023/08/04 02:51:44;;;;;;;1.93;0.93;;;;;;;14.71;100.00;100643.00;5011956;28;20289;-74
2023/08/04 02:54:09;;;;;;;2.07;1.00;;;;;;;14.17;100.00;100532.28;5012005;28;20224;-74
2023/08/04 02:56:35;;;;;;;3.60;1.00;;;;;;;13.71;100.00;100435.88;5020252;28;20302;-74
2023/08/04 02:59:01;;;;;;;4.47;1.10;;;;;;;14.36;100.00;100596.97;5010952;28;20203;-75
2023/08/04 03:01:26;;;;;;;2.00;1.07;;;;;;;13.78;100.00;100459.00;5011555;28;20436;-74
2023/08/04 03:03:51;;;;;;;6.60;1.00;;;;;;;15.45;100.00;100778.59;5011630;28;20184;-74
2023/08/04 03:06:17;;;;;;;3.93;1.10;;;;;;;14.65;100.00;100655.53;5012140;28;20561;-74
2023/08/04 03:08:42;;;;;;;3.30;1.60;;;;;;;14.69;100.00;100664.84;5010586;28;20192;-74
2023/08/04 03:11:11;;;;;;;1.57;0.80;;;;;;;14.23;100.00;100554.81;5013490;28;20559;-75
2023/08/04 03:13:38;;;;;;;4.60;1.00;;;;;;;14.63;100.00;100625.25;5014853;28;20647;-74
2023/08/04 03:16:03;;;;;;;7.03;1.00;;;;;;;14.52;100.00;100642.22;5010264;28;20589;-74
2023/08/04 03:18:29;;;;;;;3.40;1.23;;;;;;;15.62;100.00;100783.28;5011151;28;20613;-74
2023/08/04 03:20:55;;;;;;;2.70;0.80;;;;;;;13.83;100.00;100506.00;5011429;28;20567;-75
2023/08/04 03:23:21;;;;;;;2.70;0.80;;;;;;;16.49;100.00;100997.28;5010646;28;20798;-74
2023/08/04 03:25:47;;;;;;;1.30;0.70;;;;;;;15.78;100.00;100870.00;5007550;28;20282;-74
2023/08/04 03:28:13;;;;;;;2.80;1.00;;;;;;;14.08;100.00;100595.69;5010219;28;20443;-74
2023/08/04 03:30:39;;;;;;;2.90;0.83;;;;;;;13.41;100.00;100487.06;5008704;28;20505;-74
2023/08/04 03:33:05;;;;;;;2.80;0.90;;;;;;;14.10;100.00;100628.66;5007154;28;20282;-74
2023/08/04 03:35:31;;;;;;;1.50;0.80;;;;;;;13.68;100.00;100520.75;5008938;28;20300;-74
2023/08/04 03:37:56;;;;;;;3.23;1.10;;;;;;;14.40;100.00;100665.63;5009140;28;20296;-75
2023/08/04 03:40:21;;;;;;;4.80;1.10;;;;;;;16.08;100.00;100898.84;5010053;28;20847;-74
2023/08/04 03:42:47;;;;;;;2.30;1.00;;;;;;;16.52;100.00;100972.44;5008257;28;20566;-75
2023/08/04 03:45:13;;;;;;;1.87;0.80;;;;;;;13.33;100.00;100501.66;5015155;28;20406;-74
2023/08/04 03:47:38;;;;;;;2.53;0.90;;;;;;;14.38;100.00;100681.22;5007067;28;20189;-74
2023/08/04 03:50:05;;;;;;;3.60;1.00;;;;;;;13.77;100.00;100575.16;5008958;28;20192;-74
2023/08/04 03:52:31;;;;;;;2.60;1.00;;;;;;;16.05;100.00;100923.66;5007223;28;20188;-74
2023/08/04 03:54:57;;;;;;;4.63;0.73;;;;;;;15.10;100.00;100811.75;5008374;28;20513;-74
2023/08/04 03:57:22;;;;;;;3.60;0.70;;;;;;;13.26;100.00;100549.41;5008090;28;20588;-74
2023/08/04 03:59:48;;;;;;;1.53;0.67;;;;;;;13.04;100.00;100511.28;5009548;28;20261;-74
2023/08/04 04:02:14;;;;;;;3.77;1.07;;;;;;;15.97;100.00;101049.28;5006347;28;20193;-74
2023/08/04 04:04:39;;;;;;;5.67;0.70;;;;;;;13.98;100.00;100714.06;5006962;28;20221;-74
2023/08/04 04:07:05;;;;;;;1.20;0.70;;;;;;;13.60;100.00;100712.38;5006613;28;20192;-74
2023/08/04 04:09:31;;;;;;;2.27;0.80;;;;;;;13.15;100.00;100629.03;5011105;28;20203;-74
2023/08/04 04:11:56;;;;;;;2.43;0.60;;;;;;;14.79;100.00;100847.06;5009714;28;20207;-74
2023/08/04 04:14:22;;;;;;;1.90;0.70;;;;;;;13.24;100.00;100654.63;5012971;28;20188;-74
2023/08/04 04:16:47;;;;;;;1.63;0.70;;;;;;;13.06;100.00;100615.00;5015960;28;20208;-74
2023/08/04 04:19:12;;;;;;;2.27;0.70;;;;;;;14.38;100.00;100811.56;5013100;28;20623;-74
2023/08/04 04:21:38;;;;;;;2.33;0.90;;;;;;;13.29;100.00;100686.34;5012829;28;20243;-74
2023/08/04 04:24:04;;;;;;;2.90;0.80;;;;;;;13.34;100.00;100732.28;5012239;28;20185;-74
2023/08/04 04:26:29;;;;;;;2.33;0.70;;;;;;;14.77;100.00;100936.38;5008831;28;20216;-74
2023/08/04 04:28:55;;;;;;;2.70;0.80;;;;;;;14.11;100.00;100831.75;5011269;28;20203;-74
2023/08/04 04:31:20;;;;;;;2.80;0.80;;;;;;;14.02;100.00;100802.38;5009355;28;20684;-74
2023/08/04 04:33:46;;;;;;;2.77;1.20;;;;;;;14.88;100.00;100973.44;5023978;28;20246;-74
2023/08/04 04:36:11;;;;;;;2.70;0.80;;;;;;;14.11;100.00;100837.97;5019462;28;20211;-74
2023/08/04 04:38:37;;;;;;;3.27;0.83;;;;;;;13.28;100.00;100630.81;5015094;28;20245;-74
2023/08/04 04:41:02;;;;;;;2.00;0.80;;;;;;;14.60;100.00;100847.03;5016174;28;20189;-74
2023/08/04 04:43:29;;;;;;;7.23;1.10;;;;;;;14.78;100.00;100921.00;5014927;28;20249;-74
2023/08/04 04:46:03;;;;;;;2.03;0.90;;;;;;;13.32;100.00;100691.28;5007747;28;20258;-74
2023/08/04 04:48:29;;;;;;;2.10;0.80;;;;;;;16.02;100.00;101124.34;5007699;28;20479;-74
2023/08/04 04:50:54;;;;;;;3.40;0.80;;;;;;;15.35;100.00;101006.16;5013355;28;20886;-74
2023/08/04 04:53:20;;;;;;;2.03;0.80;;;;;;;14.58;100.00;100923.88;5011003;28;20196;-74
2023/08/04 04:55:45;;;;;;;1.97;0.70;;;;;;;14.01;100.00;100816.09;5011481;28;20291;-74
2023/08/04 04:58:14;;;;;;;1.50;0.70;;;;;;;15.85;100.00;101072.72;5014277;28;20208;-74
2023/08/04 05:00:40;;;;;;;3.97;0.80;;;;;;;16.26;100.00;101125.28;5019569;28;20672;-74
2023/08/04 05:03:08;;;;;;;1.73;0.80;;;;;;;16.26;100.00;101136.13;5014032;28;20457;-74
2023/08/04 05:05:34;;;;;;;1.50;0.70;;;;;;;16.34;100.00;101170.13;5014922;28;20209;-74
2023/08/04 05:07:59;;;;;;;2.37;0.77;;;;;;;15.70;100.00;101053.38;5012268;28;20822;-74
2023/08/04 05:10:25;;;;;;;2.13;0.80;;;;;;;16.30;100.00;101156.25;5012334;28;20219;-74
2023/08/04 05:12:51;;;;;;;2.07;0.90;;;;;;;15.79;100.00;101106.09;5009846;28;20538;-74
2023/08/04 05:15:16;;;;;;;1.40;0.80;;;;;;;14.98;100.00;100981.00;5015782;28;20466;-75
2023/08/04 05:17:42;;;;;;;2.43;1.00;;;;;;;16.12;100.00;101189.59;5014194;28;20212;-74
2023/08/04 05:20:08;;;;;;;2.10;0.90;;;;;;;15.88;100.00;101145.34;5015035;28;20205;-74
2023/08/04 05:22:33;;;;;;;1.90;0.87;;;;;;;15.98;100.00;101129.38;5011585;28;20197;-74
2023/08/04 05:24:59;;;;;;;1.97;0.90;;;;;;;15.95;100.00;101127.13;5011675;28;20471;-74
2023/08/04 05:27:24;;;;;;;1.63;0.93;;;;;;;16.24;100.00;101166.09;5012499;28;20180;-75
2023/08/04 05:29:50;;;;;;;2.60;1.13;;;;;;;16.10;100.00;101159.22;5011549;28;20223;-74
2023/08/04 05:32:15;;;;;;;2.37;1.00;;;;;;;16.20;100.00;101181.16;5015965;28;20193;-75
2023/08/04 05:34:41;;;;;;;1.87;1.00;;;;;;;16.17;100.00;101181.63;5014948;28;20607;-74
2023/08/04 05:37:06;;;;;;;2.13;1.10;;;;;;;16.25;100.00;101183.16;5014373;28;20291;-75
2023/08/04 05:39:33;;;;;;;2.07;0.83;;;;;;;15.51;100.00;101085.81;5011529;28;20188;-75
2023/08/04 05:41:58;;;;;;;2.80;1.10;;;;;;;16.12;100.00;101195.00;5017670;28;20197;-75
2023/08/04 05:44:24;;;;;;;3.07;1.20;;;;;;;16.20;100.00;101196.53;5012741;28;20526;-75
2023/08/04 05:46:49;;;;;;;2.73;1.03;;;;;;;16.16;100.00;101192.66;5014018;28;20199;-75
2023/08/04 05:49:14;;;;;;;1.67;0.80;;;;;;;16.15;100.00;101185.59;5012521;28;20196;-75
2023/08/04 05:51:40;;;;;;;4.40;1.40;;;;;;;15.36;100.00;101061.03;5013852;28;20573;-74
2023/08/04 05:54:05;;;;;;;2.60;0.90;;;;;;;15.58;100.00;101083.03;5012313;28;21008;-75
2023/08/04 05:56:31;;;;;;;2.20;1.10;;;;;;;16.13;100.00;101174.16;5011796;28;20288;-75
2023/08/04 05:58:56;;;;;;;4.30;1.13;;;;;;;14.95;100.00;100991.44;5013397;28;20683;-75
2023/08/04 06:01:21;;;;;;;5.90;1.00;;;;;;;15.94;100.00;101140.88;5012962;28;20275;-75
2023/08/04 06:03:47;;;;;;;2.87;0.97;;;;;;;16.33;100.00;101200.97;5013352;28;20204;-75
2023/08/04 06:06:12;;;;;;;2.43;0.97;;;;;;;15.73;100.00;101129.47;5013559;28;20223;-74
2023/08/04 06:08:38;;;;;;;1.50;0.80;;;;;;;15.43;100.00;101075.31;5012780;28;20644;-75
2023/08/04 06:11:03;;;;;;;2.37;0.97;;;;;;;15.62;100.00;101129.38;5012870;28;20541;-74
2023/08/04 06:13:29;;;;;;;3.10;0.97;;;;;;;15.98;100.00;101175.38;5010141;28;20696;-75
2023/08/04 06:15:54;;;;;;;1.47;0.93;;;;;;;15.42;100.00;101073.66;5013079;28;20239;-75
2023/08/04 06:18:20;;;;;;;3.10;1.13;;;;;;;15.64;100.00;101122.69;5011464;28;20220;-74
2023/08/04 06:20:47;;;;;;;2.20;0.80;;;;;;;15.11;100.00;101036.78;5013243;28;20196;-73
2023/08/04 06:23:13;;;;;;;2.80;1.00;;;;;;;15.73;100.00;101143.00;5021164;28;20452;-75
2023/08/04 06:25:38;;;;;;;2.17;1.07;;;;;;;16.07;100.00;101151.53;5010071;28;20843;-75
2023/08/04 06:28:04;;;;;;;3.10;0.80;;;;;;;16.11;100.00;101178.97;5005529;28;20447;-75
2023/08/04 06:30:30;;;;;;;2.40;0.90;;;;;;;16.47;100.00;101224.94;5009974;28;20673;-75
2023/08/04 06:32:56;;;;;;;1.53;0.80;;;;;;;15.90;100.00;101110.75;5019455;28;20224;-75
2023/08/04 06:35:21;;;;;;;2.00;0.80;;;;;;;16.49;100.00;101201.19;5012574;28;20494;-75
2023/08/04 06:37:47;;;;;;;2.43;1.10;;;;;;;16.56;100.00;101202.97;5007653;28;20204;-75
2023/08/04 06:40:12;;;;;;;1.60;0.93;;;;;;;15.57;100.00;101078.69;5010876;28;20188;-75
2023/08/04 06:42:38;;;;;;;2.80;0.73;;;;;;;16.35;100.00;101190.75;5012412;28;20196;-75
2023/08/04 06:45:04;;;;;;;1.50;0.90;;;;;;;15.94;100.00;101125.50;5014107;28;20215;-74
2023/08/04 06:47:29;;;;;;;1.77;0.97;;;;;;;16.52;100.00;101220.72;5011012;28;20177;-74
2023/08/04 06:49:54;;;;;;;3.83;0.90;;;;;;;15.64;100.00;101043.44;5010510;28;20444;-74
2023/08/04 06:52:20;;;;;;;4.43;1.00;;;;;;;16.72;100.00;101216.69;5013093;28;20577;-75
2023/08/04 06:54:45;;;;;;;2.40;0.97;;;;;;;16.75;100.00;101219.97;5012902;28;20209;-75
2023/08/04 06:57:11;;;;;;;2.90;1.00;;;;;;;16.70;100.00;101215.28;5012015;28;20574;-75
2023/08/04 06:59:36;;;;;;;3.37;0.80;;;;;;;16.53;100.00;101170.94;5011455;28;20197;-75
2023/08/04 07:02:02;;;;;;;2.00;1.03;;;;;;;16.87;100.00;101210.88;5010914;28;20192;-75
2023/08/04 07:04:27;;;;;;;4.33;1.20;;;;;;;16.04;100.00;101111.41;5013972;28;20196;-74
2023/08/04 07:06:55;;;;;;;1.90;1.10;;;;;;;15.76;100.00;101079.50;5012525;28;20196;-74
2023/08/04 07:09:20;;;;;;;2.73;1.23;;;;;;;16.48;100.00;101212.22;5019312;28;20719;-75
2023/08/04 07:11:45;;;;;;;4.17;1.30;;;;;;;16.01;100.00;101188.44;5013294;28;20455;-74
2023/08/04 07:14:11;;;;;;;4.33;1.50;;;;;;;16.48;100.00;101233.88;5012749;28;20189;-75
2023/08/04 07:16:36;;;;;;;2.47;1.20;;;;;;;15.35;100.00;101057.50;5012681;28;20213;-74
2023/08/04 07:19:02;;;;;;;2.90;1.23;;;;;;;15.28;100.00;101064.03;5011778;28;20197;-74
2023/08/04 07:21:27;;;;;;;4.07;1.33;;;;;;;16.54;100.00;101234.84;5018923;28;20193;-74
2023/08/04 07:23:53;;;;;;;3.00;1.10;;;;;;;-145.14;100.00;70583.66;5011101;28;20222;-74
2023/08/04 07:26:18;;;;;;;4.80;1.13;;;;;;;-145.14;100.00;70583.66;5011787;28;20302;-74
2023/08/04 07:28:44;;;;;;;6.30;1.60;;;;;;;-145.14;100.00;70583.66;5009429;28;20185;-74
2023/08/04 07:31:10;;;;;;;2.53;1.20;;;;;;;-145.14;100.00;70583.66;5009619;28;20177;-74
2023/08/04 07:33:36;;;;;;;2.80;1.20;;;;;;;-145.14;100.00;70583.66;5008388;28;20193;-75
2023/08/04 07:36:03;;;;;;;4.50;1.63;;;;;;;-145.14;100.00;70583.66;5015499;28;20224;-75
2023/08/04 07:38:29;;;;;;;7.40;1.73;;;;;;;-145.14;100.00;70583.66;5008359;28;20558;-74
2023/08/04 07:40:55;;;;;;;4.23;1.67;;;;;;;-145.14;100.00;70583.66;5011218;28;20536;-75
2023/08/04 07:43:21;;;;;;;3.50;1.27;;;;;;;-145.14;100.00;70583.66;5011654;28;20439;-74
2023/08/04 07:45:47;;;;;;;4.73;1.43;;;;;;;-145.14;100.00;70583.66;5011388;28;20467;-75
2023/08/04 07:48:12;;;;;;;5.03;1.70;;;;;;;-145.14;100.00;70583.66;5011397;28;20442;-75
2023/08/04 07:50:45;;;;;;;4.03;1.57;;;;;;;-145.14;100.00;70583.66;5012331;28;21158;-75
2023/08/04 07:53:10;;;;;;;4.03;1.43;;;;;;;-145.14;100.00;70583.66;5011927;28;20528;-74
2023/08/04 07:55:36;;;;;;;3.93;1.53;;;;;;;-145.14;100.00;70583.66;5012374;28;21029;-74
2023/08/04 07:58:06;;;;;;;3.10;1.63;;;;;;;-145.14;100.00;70583.66;5014371;28;20726;-74
2023/08/04 08:00:31;;;;;;;6.60;1.57;;;;;;;-145.14;100.00;70583.66;5013005;28;20447;-74
2023/08/04 08:02:57;;;;;;;3.00;1.20;;;;;;;-145.14;100.00;70583.66;5009029;28;21070;-74
2023/08/04 08:05:22;;;;;;;5.87;1.60;;;;;;;-145.14;100.00;70583.66;5010743;28;20217;-74
2023/08/04 08:07:48;;;;;;;3.80;1.30;;;;;;;-145.14;100.00;70583.66;5014081;28;20275;-74
2023/08/04 08:10:13;;;;;;;2.83;1.27;;;;;;;-145.14;100.00;70583.66;5009764;28;20777;-75
2023/08/04 08:12:39;;;;;;;5.07;1.37;;;;;;;-145.14;100.00;70583.66;5010225;28;20823;-74
2023/08/04 08:15:05;;;;;;;4.50;1.73;;;;;;;-145.14;100.00;70583.66;5012600;28;20212;-74
2023/08/04 08:17:31;;;;;;;4.33;1.23;;;;;;;-145.14;100.00;70583.66;5018865;28;20688;-75
2023/08/04 08:19:57;;;;;;;5.73;1.47;;;;;;;-145.14;100.00;70583.66;5014392;28;20470;-74
2023/08/04 08:22:22;;;;;;;2.97;1.40;;;;;;;-145.14;100.00;70583.66;5011741;28;21096;-75
2023/08/04 08:24:55;;;;;;;3.20;1.30;;;;;;;-145.14;100.00;70583.66;5009261;28;20552;-74
2023/08/04 08:27:20;;;;;;;3.23;1.70;;;;;;;-145.14;100.00;70583.66;5010818;28;20204;-75
2023/08/04 08:29:47;;;;;;;3.80;1.33;;;;;;;-145.14;100.00;70583.66;5013722;28;20909;-74
2023/08/04 08:32:13;;;;;;;4.20;1.43;;;;;;;-145.14;100.00;70583.66;5012162;28;20192;-74
2023/08/04 08:34:38;;;;;;;3.63;1.20;;;;;;;-145.14;100.00;70583.66;5016657;28;20889;-74
2023/08/04 08:37:07;;;;;;;3.20;1.00;;;;;;;-145.14;100.00;70583.66;5009652;28;20242;-74
2023/08/04 08:39:33;;;;;;;3.80;1.30;;;;;;;-145.14;100.00;70583.66;5010787;28;20201;-74
2023/08/04 08:41:58;;;;;;;3.83;1.23;;;;;;;-145.14;100.00;70583.66;5009699;28;20451;-74
2023/08/04 08:44:24;;;;;;;3.63;1.43;;;;;;;-145.14;100.00;70583.66;5003809;28;20177;-74
2023/08/04 08:46:50;;;;;;;3.73;1.03;;;;;;;-145.14;100.00;70583.66;5010362;28;20196;-74
2023/08/04 08:49:15;;;;;;;3.30;1.30;;;;;;;-145.14;100.00;70583.66;5011315;28;20673;-74
2023/08/04 08:51:45;;;;;;;5.10;1.30;;;;;;;-145.14;100.00;70583.66;5014261;28;20445;-73
2023/08/04 08:54:12;;;;;;;2.30;1.10;;;;;;;-145.14;100.00;70583.66;5004783;28;20226;-73
2023/08/04 08:56:37;;;;;;;3.83;1.40;;;;;;;-145.14;100.00;70583.66;5019691;28;20463;-73
2023/08/04 08:59:03;;;;;;;3.67;1.40;;;;;;;-145.14;100.00;70583.66;5020312;28;20545;-74
2023/08/04 09:01:30;;;;;;;3.17;1.10;;;;;;;-145.14;100.00;70583.66;5015078;28;20193;-74
2023/08/04 09:03:59;;;;;;;4.20;1.17;;;;;;;-145.14;100.00;70583.66;5010985;28;20641;-74
2023/08/04 09:06:24;;;;;;;6.53;1.57;;;;;;;-145.14;100.00;70583.66;5012909;28;20470;-74
2023/08/04 09:08:50;;;;;;;6.30;1.30;;;;;;;-145.14;100.00;70583.66;5010564;28;20440;-74
2023/08/04 09:11:16;;;;;;;2.70;1.50;;;;;;;-145.14;100.00;70583.66;5013348;28;20547;-74
2023/08/04 09:13:43;;;;;;;5.90;1.40;;;;;;;-145.14;100.00;70583.66;5019956;28;20758;-74
2023/08/04 09:16:12;;;;;;;7.80;1.50;;;;;;;-145.14;100.00;70583.66;5012705;28;20220;-73
2023/08/04 09:18:39;;;;;;;4.10;1.10;;;;;;;-145.14;100.00;70583.66;5015893;28;20463;-74
2023/08/04 09:21:07;;;;;;;5.93;1.50;;;;;;;-145.14;100.00;70583.66;5012095;28;20442;-74
2023/08/04 09:23:36;;;;;;;3.80;1.57;;;;;;;-145.14;100.00;70583.66;5011607;28;20444;-74
2023/08/04 09:26:01;;;;;;;7.63;1.30;;;;;;;-145.14;100.00;70583.66;5013664;28;20559;-74
2023/08/04 09:28:27;;;;;;;4.53;1.37;;;;;;;-145.14;100.00;70583.66;5014897;28;20682;-74
2023/08/04 09:31:07;;;;;;;8.40;1.93;;;;;;;-145.14;100.00;70583.66;5014678;28;20731;-74
2023/08/04 09:33:37;;;;;;;2.47;1.20;;;;;;;-145.14;100.00;70583.66;5011706;28;20454;-74
2023/08/04 09:36:07;;;;;;;8.23;1.70;;;;;;;-145.14;100.00;70583.66;5012561;28;20459;-74
2023/08/04 09:38:33;;;;;;;4.90;1.30;;;;;;;-145.14;100.00;70583.66;5014475;28;20481;-74
2023/08/04 09:41:07;;;;;;;4.50;1.20;;;;;;;-145.14;100.00;70583.66;5015660;28;20435;-74
2023/08/04 09:43:33;;;;;;;5.70;1.50;;;;;;;-145.14;100.00;70583.66;5021108;28;21020;-74
2023/08/04 09:46:03;;;;;;;3.27;1.30;;;;;;;-145.14;100.00;70583.66;5013765;28;20972;-74
2023/08/04 09:48:29;;;;;;;4.90;1.50;;;;;;;-145.14;100.00;70583.66;5014145;28;20436;-73
2023/08/04 09:51:08;;;;;;;3.30;1.10;;;;;;;-145.14;100.00;70583.66;5010572;28;20502;-74
2023/08/04 09:53:44;;;;;;;6.10;1.30;;;;;;;-145.14;100.00;70583.66;5012932;28;20199;-74
2023/08/04 09:56:11;;;;;;;7.07;1.73;;;;;;;-145.14;100.00;70583.66;5009657;28;20466;-74
2023/08/04 09:58:38;;;;;;;8.47;2.13;;;;;;;-145.14;100.00;70583.66;5012018;28;20504;-74
2023/08/04 10:01:04;;;;;;;5.40;1.53;;;;;;;-145.14;100.00;70583.66;5009710;28;20448;-74
2023/08/04 10:03:29;;;;;;;3.43;1.30;;;;;;;-145.14;100.00;70583.66;5012224;28;20797;-75
2023/08/04 10:05:59;;;;;;;4.23;1.10;;;;;;;-145.14;100.00;70583.66;5016487;28;20544;-74
2023/08/04 10:08:29;;;;;;;6.07;1.47;;;;;;;-145.14;100.00;70583.66;5019830;28;20184;-73
2023/08/04 10:10:56;;;;;;;3.40;1.10;;;;;;;-145.14;100.00;70583.66;5014181;28;20454;-74
2023/08/04 10:13:22;;;;;;;2.60;1.07;;;;;;;-145.14;100.00;70583.66;5011202;28;20432;-73
2023/08/04 10:15:48;;;;;;;5.40;1.37;;;;;;;-145.14;100.00;70583.66;5011436;28;20557;-73
2023/08/04 10:18:14;;;;;;;6.57;1.30;;;;;;;-145.14;100.00;70583.66;5021461;28;20499;-74
2023/08/04 10:20:39;;;;;;;5.73;1.57;;;;;;;-145.14;100.00;70583.66;5010803;28;20444;-76
2023/08/04 10:23:05;;;;;;;6.30;1.30;;;;;;;-145.14;100.00;70583.66;5012110;28;20189;-80
2023/08/04 10:25:30;;;;;;;6.07;1.57;;;;;;;-145.14;100.00;70583.66;5012473;28;20224;-78
2023/08/04 10:27:57;;;;;;;4.87;1.70;;;;;;;-145.14;100.00;70583.66;5012060;28;20569;-79
2023/08/04 10:30:24;;;;;;;5.70;1.07;;;;;;;-145.14;100.00;70583.66;5009429;28;20669;-78
2023/08/04 10:32:51;;;;;;;3.93;1.13;;;;;;;-145.14;100.00;70583.66;5011291;28;20931;-78
2023/08/04 10:35:21;;;;;;;4.50;1.40;;;;;;;-145.14;100.00;70583.66;5015312;28;20547;-78
2023/08/04 10:37:53;;;;;;;3.60;1.33;;;;;;;-145.14;100.00;70583.66;5012064;28;20472;-79
2023/08/04 10:40:32;;;;;;;6.57;1.30;;;;;;;-145.14;100.00;70583.66;5016270;28;20438;-80
2023/08/04 10:43:05;;;;;;;6.17;1.77;;;;;;;-145.14;100.00;70583.66;5012874;28;20455;-78
2023/08/04 10:45:53;;;;;;;5.27;1.57;;;;;;;-145.14;100.00;70583.66;5015029;28;21035;-80
2023/08/04 10:48:22;;;;;;;3.07;1.30;;;;;;;-145.14;100.00;70583.66;5014292;28;20538;-78
2023/08/04 10:50:51;;;;;;;6.73;1.60;;;;;;;-145.14;100.00;70583.66;5029660;28;20448;-79
2023/08/04 10:53:16;;;;;;;4.10;1.00;;;;;;;-145.14;100.00;70583.66;5016393;28;20970;-80
2023/08/04 10:55:56;;;;;;;3.13;1.00;;;;;;;-145.14;100.00;70583.66;5011838;28;20456;-79
2023/08/04 10:58:26;;;;;;;4.83;1.50;;;;;;;-145.14;100.00;70583.66;5011527;28;20208;-79
2023/08/04 11:00:53;;;;;;;2.90;1.10;;;;;;;-145.14;100.00;70583.66;5011250;28;20513;-79
2023/08/04 11:03:21;;;;;;;4.87;1.43;;;;;;;-145.14;100.00;70583.66;5008782;28;20447;-79
2023/08/04 11:05:49;;;;;;;3.63;1.17;;;;;;;-145.14;100.00;70583.66;5012012;28;20466;-79
2023/08/04 11:08:15;;;;;;;3.93;1.20;;;;;;;-145.14;100.00;70583.66;5012886;28;20525;-78
2023/08/04 11:10:52;;;;;;;3.60;1.30;;;;;;;-145.14;100.00;70583.66;5017492;28;20479;-79